sensor_id;sensor_type;location;lat;lon;timestamp;temperature;humidity
39849;DHT22;25518;47.878;15.914;2023-03-23T00:04:58;5.00;99.90
39849;DHT22;25518;47.878;15.914;2023-03-23T00:10:50;5.10;99.90
39849;DHT22;25518;47.878;15.914;2023-03-23T00:13:52;5.00;99.90
39849;DHT22;25518;47.878;15.914;2023-03-23T00:19:36;5.10;99.90
39849;DHT22;25518;47.878;15.914;2023-03-23T00:22:40;5.20;99.90
39849;DHT22;25518;47.878;15.914;2023-03-23T00:25:53;5.10;99.90
39849;DHT22;25518;47.878;15.914;2023-03-23T00:28:48;5.10;99.90
39849;DHT22;25518;47.878;15.914;2023-03-23T00:34:29;5.00;99.90
39849;DHT22;25518;47.878;15.914;2023-03-23T00:37:38;5.30;99.90
39849;DHT22;25518;47.878;15.914;2023-03-23T00:44:24;5.00;99.90
39849;DHT22;25518;47.878;15.914;2023-03-23T00:59:37;4.90;99.90
39849;DHT22;25518;47.878;15.914;2023-03-23T01:02:34;5.00;99.90
39849;DHT22;25518;47.878;15.914;2023-03-23T01:06:10;5.10;99.90
39849;DHT22;25518;47.878;15.914;2023-03-23T01:25:12;5.10;99.90
39849;DHT22;25518;47.878;15.914;2023-03-23T01:28:50;1.10;99.90
39849;DHT22;25518;47.878;15.914;2023-03-23T01:35:38;4.80;99.90
39849;DHT22;25518;47.878;15.914;2023-03-23T01:39:50;4.80;99.90
39849;DHT22;25518;47.878;15.914;2023-03-23T01:43:25;4.60;99.90
39849;DHT22;25518;47.878;15.914;2023-03-23T01:46:33;4.00;99.90
39849;DHT22;25518;47.878;15.914;2023-03-23T01:49:54;2.70;99.90
39849;DHT22;25518;47.878;15.914;2023-03-23T01:53:26;4.70;99.90
39849;DHT22;25518;47.878;15.914;2023-03-23T01:57:25;4.50;99.90
39849;DHT22;25518;47.878;15.914;2023-03-23T02:00:25;4.50;99.90
39849;DHT22;25518;47.878;15.914;2023-03-23T02:03:41;1.50;99.90
39849;DHT22;25518;47.878;15.914;2023-03-23T02:06:36;1.90;99.90
39849;DHT22;25518;47.878;15.914;2023-03-23T02:10:49;4.30;99.90
39849;DHT22;25518;47.878;15.914;2023-03-23T02:14:39;4.40;99.90
39849;DHT22;25518;47.878;15.914;2023-03-23T02:33:48;4.50;99.90
39849;DHT22;25518;47.878;15.914;2023-03-23T02:37:20;4.50;99.90
39849;DHT22;25518;47.878;15.914;2023-03-23T02:40:55;4.50;99.90
39849;DHT22;25518;47.878;15.914;2023-03-23T02:44:38;4.30;99.90
39849;DHT22;25518;47.878;15.914;2023-03-23T02:48:12;3.90;99.90
39849;DHT22;25518;47.878;15.914;2023-03-23T02:51:49;4.00;99.90
39849;DHT22;25518;47.878;15.914;2023-03-23T02:55:30;4.10;99.90
39849;DHT22;25518;47.878;15.914;2023-03-23T02:59:11;4.00;99.90
39849;DHT22;25518;47.878;15.914;2023-03-23T03:21:29;3.80;99.90
39849;DHT22;25518;47.878;15.914;2023-03-23T03:25:11;3.60;99.90
39849;DHT22;25518;47.878;15.914;2023-03-23T03:36:02;3.40;99.90
39849;DHT22;25518;47.878;15.914;2023-03-23T03:43:44;3.70;99.90
39849;DHT22;25518;47.878;15.914;2023-03-23T03:47:38;6.30;99.90
39849;DHT22;25518;47.878;15.914;2023-03-23T03:51:38;3.70;99.90
39849;DHT22;25518;47.878;15.914;2023-03-23T04:03:54;3.60;99.90
39849;DHT22;25518;47.878;15.914;2023-03-23T04:07:46;3.70;99.90
39849;DHT22;25518;47.878;15.914;2023-03-23T04:11:32;3.70;99.90
39849;DHT22;25518;47.878;15.914;2023-03-23T04:15:17;0.30;99.90
39849;DHT22;25518;47.878;15.914;2023-03-23T04:18:08;0.80;99.90
39849;DHT22;25518;47.878;15.914;2023-03-23T04:20:59;3.60;99.90
39849;DHT22;25518;47.878;15.914;2023-03-23T04:23:54;2.80;99.90
39849;DHT22;25518;47.878;15.914;2023-03-23T04:26:44;1.10;99.90
39849;DHT22;25518;47.878;15.914;2023-03-23T04:29:33;0.70;99.90
39849;DHT22;25518;47.878;15.914;2023-03-23T04:32:26;-0.40;99.90
39849;DHT22;25518;47.878;15.914;2023-03-23T04:35:19;3.50;99.90
39849;DHT22;25518;47.878;15.914;2023-03-23T04:38:10;3.30;99.90
39849;DHT22;25518;47.878;15.914;2023-03-23T04:41:00;1.20;99.90
39849;DHT22;25518;47.878;15.914;2023-03-23T04:43:53;2.30;99.90
39849;DHT22;25518;47.878;15.914;2023-03-23T04:46:50;5.40;99.90
39849;DHT22;25518;47.878;15.914;2023-03-23T04:49:40;2.60;99.90
39849;DHT22;25518;47.878;15.914;2023-03-23T04:52:30;4.90;99.90
39849;DHT22;25518;47.878;15.914;2023-03-23T04:55:25;2.80;99.90
39849;DHT22;25518;47.878;15.914;2023-03-23T04:58:16;5.80;99.90
39849;DHT22;25518;47.878;15.914;2023-03-23T05:01:06;4.20;99.90
39849;DHT22;25518;47.878;15.914;2023-03-23T05:03:57;4.40;99.90
39849;DHT22;25518;47.878;15.914;2023-03-23T05:06:47;2.20;99.90
39849;DHT22;25518;47.878;15.914;2023-03-23T05:09:46;4.00;99.90
39849;DHT22;25518;47.878;15.914;2023-03-23T05:12:36;3.50;99.90
39849;DHT22;25518;47.878;15.914;2023-03-23T05:15:26;3.20;99.90
39849;DHT22;25518;47.878;15.914;2023-03-23T05:18:17;0.70;99.90
39849;DHT22;25518;47.878;15.914;2023-03-23T05:21:06;3.40;99.90
39849;DHT22;25518;47.878;15.914;2023-03-23T05:23:59;2.20;99.90
39849;DHT22;25518;47.878;15.914;2023-03-23T05:26:50;3.60;99.90
39849;DHT22;25518;47.878;15.914;2023-03-23T05:29:41;3.60;99.90
39849;DHT22;25518;47.878;15.914;2023-03-23T05:32:31;0.60;99.90
39849;DHT22;25518;47.878;15.914;2023-03-23T05:35:34;0.90;99.90
39849;DHT22;25518;47.878;15.914;2023-03-23T05:38:24;-0.10;99.90
39849;DHT22;25518;47.878;15.914;2023-03-23T05:41:19;5.10;99.90
39849;DHT22;25518;47.878;15.914;2023-03-23T05:44:10;3.80;99.90
39849;DHT22;25518;47.878;15.914;2023-03-23T05:47:03;4.00;99.90
39849;DHT22;25518;47.878;15.914;2023-03-23T05:49:53;1.60;99.90
39849;DHT22;25518;47.878;15.914;2023-03-23T05:52:43;3.20;99.90
39849;DHT22;25518;47.878;15.914;2023-03-23T05:55:35;4.10;99.90
39849;DHT22;25518;47.878;15.914;2023-03-23T05:58:25;4.20;99.90
39849;DHT22;25518;47.878;15.914;2023-03-23T06:01:15;3.10;99.90
39849;DHT22;25518;47.878;15.914;2023-03-23T06:04:06;5.40;99.90
39849;DHT22;25518;47.878;15.914;2023-03-23T06:07:00;4.80;99.90
39849;DHT22;25518;47.878;15.914;2023-03-23T06:09:52;2.30;99.90
39849;DHT22;25518;47.878;15.914;2023-03-23T06:12:44;2.30;99.90
39849;DHT22;25518;47.878;15.914;2023-03-23T06:15:34;5.30;99.90
39849;DHT22;25518;47.878;15.914;2023-03-23T06:18:25;2.60;99.90
39849;DHT22;25518;47.878;15.914;2023-03-23T06:21:15;4.70;99.90
39849;DHT22;25518;47.878;15.914;2023-03-23T06:24:29;4.70;99.90
39849;DHT22;25518;47.878;15.914;2023-03-23T06:28:01;6.10;99.90
39849;DHT22;25518;47.878;15.914;2023-03-23T06:31:05;5.90;99.90
39849;DHT22;25518;47.878;15.914;2023-03-23T06:34:03;6.60;99.90
39849;DHT22;25518;47.878;15.914;2023-03-23T06:36:53;3.80;99.90
39849;DHT22;25518;47.878;15.914;2023-03-23T06:39:45;1.70;99.90
39849;DHT22;25518;47.878;15.914;2023-03-23T06:42:37;7.90;99.90
39849;DHT22;25518;47.878;15.914;2023-03-23T06:45:29;6.40;99.90
39849;DHT22;25518;47.878;15.914;2023-03-23T06:48:23;5.60;99.90
39849;DHT22;25518;47.878;15.914;2023-03-23T06:51:33;5.70;99.90
39849;DHT22;25518;47.878;15.914;2023-03-23T06:54:23;4.30;99.90
39849;DHT22;25518;47.878;15.914;2023-03-23T06:57:24;5.00;99.90
39849;DHT22;25518;47.878;15.914;2023-03-23T07:00:14;5.40;99.90
39849;DHT22;25518;47.878;15.914;2023-03-23T07:03:08;5.90;99.90
39849;DHT22;25518;47.878;15.914;2023-03-23T07:06:05;6.90;99.90
39849;DHT22;25518;47.878;15.914;2023-03-23T07:08:55;5.80;99.90
39849;DHT22;25518;47.878;15.914;2023-03-23T07:11:48;5.60;99.90
39849;DHT22;25518;47.878;15.914;2023-03-23T07:14:46;4.80;99.90
39849;DHT22;25518;47.878;15.914;2023-03-23T07:17:42;5.20;99.90
39849;DHT22;25518;47.878;15.914;2023-03-23T07:20:57;7.50;99.90
39849;DHT22;25518;47.878;15.914;2023-03-23T07:23:51;5.40;99.90
39849;DHT22;25518;47.878;15.914;2023-03-23T07:26:54;5.70;99.90
39849;DHT22;25518;47.878;15.914;2023-03-23T07:29:50;8.20;99.90
39849;DHT22;25518;47.878;15.914;2023-03-23T07:33:22;5.40;99.90
39849;DHT22;25518;47.878;15.914;2023-03-23T07:36:21;6.00;99.90
39849;DHT22;25518;47.878;15.914;2023-03-23T07:39:13;8.10;99.90
39849;DHT22;25518;47.878;15.914;2023-03-23T07:42:18;8.70;99.90
39849;DHT22;25518;47.878;15.914;2023-03-23T07:45:46;7.30;99.90
39849;DHT22;25518;47.878;15.914;2023-03-23T07:49:46;6.60;99.90
39849;DHT22;25518;47.878;15.914;2023-03-23T08:59:03;9.30;99.90
39849;DHT22;25518;47.878;15.914;2023-03-23T09:23:40;10.30;99.90
39849;DHT22;25518;47.878;15.914;2023-03-23T09:33:56;10.80;99.90
39849;DHT22;25518;47.878;15.914;2023-03-23T09:36:46;11.00;99.90
39849;DHT22;25518;47.878;15.914;2023-03-23T09:39:35;10.20;99.90
39849;DHT22;25518;47.878;15.914;2023-03-23T09:42:31;10.60;99.90
39849;DHT22;25518;47.878;15.914;2023-03-23T09:45:38;11.10;99.90
39849;DHT22;25518;47.878;15.914;2023-03-23T09:49:08;11.10;99.90
39849;DHT22;25518;47.878;15.914;2023-03-23T09:52:17;13.30;99.90
39849;DHT22;25518;47.878;15.914;2023-03-23T09:55:13;13.90;99.90
39849;DHT22;25518;47.878;15.914;2023-03-23T09:58:15;14.30;99.90
39849;DHT22;25518;47.878;15.914;2023-03-23T10:01:12;14.60;99.90
39849;DHT22;25518;47.878;15.914;2023-03-23T10:04:23;14.90;99.90
39849;DHT22;25518;47.878;15.914;2023-03-23T10:07:16;15.30;99.90
39849;DHT22;25518;47.878;15.914;2023-03-23T10:10:11;15.70;99.90
39849;DHT22;25518;47.878;15.914;2023-03-23T10:13:08;15.80;99.90
39849;DHT22;25518;47.878;15.914;2023-03-23T10:16:04;16.10;99.90
39849;DHT22;25518;47.878;15.914;2023-03-23T10:22:04;15.90;99.90
39849;DHT22;25518;47.878;15.914;2023-03-23T10:28:09;15.80;99.90
39849;DHT22;25518;47.878;15.914;2023-03-23T10:31:00;15.90;99.90
39849;DHT22;25518;47.878;15.914;2023-03-23T10:33:54;16.10;99.90
39849;DHT22;25518;47.878;15.914;2023-03-23T10:39:49;16.70;99.90
39849;DHT22;25518;47.878;15.914;2023-03-23T10:42:40;17.00;99.90
39849;DHT22;25518;47.878;15.914;2023-03-23T10:45:31;17.40;99.90
39849;DHT22;25518;47.878;15.914;2023-03-23T10:48:28;17.90;99.90
39849;DHT22;25518;47.878;15.914;2023-03-23T10:51:23;18.20;97.90
39849;DHT22;25518;47.878;15.914;2023-03-23T10:54:26;18.60;96.70
39849;DHT22;25518;47.878;15.914;2023-03-23T10:57:24;19.00;93.90
39849;DHT22;25518;47.878;15.914;2023-03-23T11:00:21;19.00;91.90
39849;DHT22;25518;47.878;15.914;2023-03-23T11:06:09;19.40;90.80
39849;DHT22;25518;47.878;15.914;2023-03-23T11:09:09;19.50;88.40
39849;DHT22;25518;47.878;15.914;2023-03-23T11:12:01;19.80;86.00
39849;DHT22;25518;47.878;15.914;2023-03-23T11:14:51;20.10;85.70
39849;DHT22;25518;47.878;15.914;2023-03-23T11:17:41;20.40;84.40
39849;DHT22;25518;47.878;15.914;2023-03-23T11:20:35;20.50;82.90
39849;DHT22;25518;47.878;15.914;2023-03-23T11:23:32;20.70;82.30
39849;DHT22;25518;47.878;15.914;2023-03-23T11:29:19;21.10;77.20
39849;DHT22;25518;47.878;15.914;2023-03-23T11:32:12;20.90;77.50
39849;DHT22;25518;47.878;15.914;2023-03-23T11:35:11;21.10;77.20
39849;DHT22;25518;47.878;15.914;2023-03-23T11:38:04;20.80;74.50
39849;DHT22;25518;47.878;15.914;2023-03-23T11:40:56;21.00;76.80
39849;DHT22;25518;47.878;15.914;2023-03-23T11:43:51;21.10;74.80
39849;DHT22;25518;47.878;15.914;2023-03-23T11:46:51;20.80;76.70
39849;DHT22;25518;47.878;15.914;2023-03-23T11:50:22;20.60;73.70
39849;DHT22;25518;47.878;15.914;2023-03-23T11:56:29;20.10;75.90
39849;DHT22;25518;47.878;15.914;2023-03-23T11:59:12;20.20;74.40
39849;DHT22;25518;47.878;15.914;2023-03-23T12:05:43;20.00;81.00
39849;DHT22;25518;47.878;15.914;2023-03-23T12:24:00;18.80;87.50
39849;DHT22;25518;47.878;15.914;2023-03-23T12:27:43;18.60;87.80
39849;DHT22;25518;47.878;15.914;2023-03-23T12:48:33;18.00;88.10
39849;DHT22;25518;47.878;15.914;2023-03-23T12:51:40;18.10;88.90
39849;DHT22;25518;47.878;15.914;2023-03-23T12:54:33;18.10;88.20
39849;DHT22;25518;47.878;15.914;2023-03-23T13:00:48;18.20;90.00
39849;DHT22;25518;47.878;15.914;2023-03-23T13:03:50;18.30;88.90
39849;DHT22;25518;47.878;15.914;2023-03-23T13:06:44;18.30;87.70
39849;DHT22;25518;47.878;15.914;2023-03-23T13:12:43;18.60;86.00
39849;DHT22;25518;47.878;15.914;2023-03-23T13:15:49;18.70;84.60
39849;DHT22;25518;47.878;15.914;2023-03-23T13:18:52;19.20;87.00
39849;DHT22;25518;47.878;15.914;2023-03-23T13:21:58;19.40;85.50
39849;DHT22;25518;47.878;15.914;2023-03-23T13:24:55;19.20;82.50
39849;DHT22;25518;47.878;15.914;2023-03-23T13:27:58;19.10;88.80
39849;DHT22;25518;47.878;15.914;2023-03-23T13:30:58;19.20;85.30
39849;DHT22;25518;47.878;15.914;2023-03-23T13:33:51;19.40;85.00
39849;DHT22;25518;47.878;15.914;2023-03-23T13:36:44;19.60;84.30
39849;DHT22;25518;47.878;15.914;2023-03-23T13:39:37;19.50;85.40
39849;DHT22;25518;47.878;15.914;2023-03-23T13:42:29;19.00;87.00
39849;DHT22;25518;47.878;15.914;2023-03-23T13:48:22;18.20;89.10
39849;DHT22;25518;47.878;15.914;2023-03-23T13:51:34;18.10;90.00
39849;DHT22;25518;47.878;15.914;2023-03-23T13:54:38;18.00;90.60
39849;DHT22;25518;47.878;15.914;2023-03-23T13:57:35;18.10;90.50
39849;DHT22;25518;47.878;15.914;2023-03-23T14:03:31;18.30;90.60
39849;DHT22;25518;47.878;15.914;2023-03-23T14:06:23;18.30;90.30
39849;DHT22;25518;47.878;15.914;2023-03-23T14:09:37;18.30;90.70
39849;DHT22;25518;47.878;15.914;2023-03-23T14:12:28;18.30;90.90
39849;DHT22;25518;47.878;15.914;2023-03-23T14:15:19;18.40;89.80
39849;DHT22;25518;47.878;15.914;2023-03-23T14:18:13;18.30;88.70
39849;DHT22;25518;47.878;15.914;2023-03-23T14:21:06;19.10;90.70
39849;DHT22;25518;47.878;15.914;2023-03-23T14:24:12;19.10;90.20
39849;DHT22;25518;47.878;15.914;2023-03-23T14:27:22;20.70;85.90
39849;DHT22;25518;47.878;15.914;2023-03-23T14:30:17;21.00;79.80
39849;DHT22;25518;47.878;15.914;2023-03-23T14:33:09;22.40;77.90
39849;DHT22;25518;47.878;15.914;2023-03-23T14:36:00;22.00;77.90
39849;DHT22;25518;47.878;15.914;2023-03-23T14:39:26;21.30;79.00
39849;DHT22;25518;47.878;15.914;2023-03-23T14:42:19;21.40;81.20
39849;DHT22;25518;47.878;15.914;2023-03-23T14:45:17;21.00;79.90
39849;DHT22;25518;47.878;15.914;2023-03-23T14:48:07;20.50;80.70
39849;DHT22;25518;47.878;15.914;2023-03-23T14:51:02;19.80;83.20
39849;DHT22;25518;47.878;15.914;2023-03-23T14:53:54;19.50;86.10
39849;DHT22;25518;47.878;15.914;2023-03-23T14:56:44;19.00;85.40
39849;DHT22;25518;47.878;15.914;2023-03-23T14:59:34;18.70;87.20
39849;DHT22;25518;47.878;15.914;2023-03-23T15:02:32;18.70;86.00
39849;DHT22;25518;47.878;15.914;2023-03-23T15:05:30;18.70;85.50
39849;DHT22;25518;47.878;15.914;2023-03-23T15:08:26;18.70;85.90
39849;DHT22;25518;47.878;15.914;2023-03-23T15:14:19;18.50;84.80
39849;DHT22;25518;47.878;15.914;2023-03-23T15:17:18;18.30;86.60
39849;DHT22;25518;47.878;15.914;2023-03-23T15:20:19;18.20;88.10
39849;DHT22;25518;47.878;15.914;2023-03-23T15:23:16;18.20;88.50
39849;DHT22;25518;47.878;15.914;2023-03-23T15:26:22;18.20;85.50
39849;DHT22;25518;47.878;15.914;2023-03-23T15:29:18;18.30;86.70
39849;DHT22;25518;47.878;15.914;2023-03-23T15:32:10;18.40;87.70
39849;DHT22;25518;47.878;15.914;2023-03-23T15:35:09;18.30;86.70
39849;DHT22;25518;47.878;15.914;2023-03-23T15:38:04;18.40;87.40
39849;DHT22;25518;47.878;15.914;2023-03-23T15:40:57;18.40;87.00
39849;DHT22;25518;47.878;15.914;2023-03-23T15:43:58;18.30;86.00
39849;DHT22;25518;47.878;15.914;2023-03-23T15:46:51;18.40;87.60
39849;DHT22;25518;47.878;15.914;2023-03-23T15:49:42;18.10;88.40
39849;DHT22;25518;47.878;15.914;2023-03-23T15:52:32;18.00;89.40
39849;DHT22;25518;47.878;15.914;2023-03-23T15:58:13;17.70;91.50
39849;DHT22;25518;47.878;15.914;2023-03-23T16:01:22;17.60;92.00
39849;DHT22;25518;47.878;15.914;2023-03-23T16:04:14;17.50;93.50
39849;DHT22;25518;47.878;15.914;2023-03-23T16:07:05;17.60;90.80
39849;DHT22;25518;47.878;15.914;2023-03-23T16:09:56;17.50;94.50
39849;DHT22;25518;47.878;15.914;2023-03-23T16:12:45;17.40;91.90
39849;DHT22;25518;47.878;15.914;2023-03-23T16:15:35;17.10;93.30
39849;DHT22;25518;47.878;15.914;2023-03-23T16:18:25;16.80;94.30
39849;DHT22;25518;47.878;15.914;2023-03-23T16:21:15;16.80;94.30
39849;DHT22;25518;47.878;15.914;2023-03-23T16:24:05;16.60;94.30
39849;DHT22;25518;47.878;15.914;2023-03-23T16:26:54;16.40;95.80
39849;DHT22;25518;47.878;15.914;2023-03-23T16:29:44;16.20;97.20
39849;DHT22;25518;47.878;15.914;2023-03-23T16:32:34;16.10;97.40
39849;DHT22;25518;47.878;15.914;2023-03-23T16:35:24;16.00;96.90
39849;DHT22;25518;47.878;15.914;2023-03-23T16:38:15;15.80;98.60
39849;DHT22;25518;47.878;15.914;2023-03-23T16:41:06;15.50;98.80
39849;DHT22;25518;47.878;15.914;2023-03-23T16:43:56;15.50;99.70
39849;DHT22;25518;47.878;15.914;2023-03-23T16:46:46;15.20;99.40
39849;DHT22;25518;47.878;15.914;2023-03-23T16:49:35;15.00;99.90
39849;DHT22;25518;47.878;15.914;2023-03-23T16:52:25;15.00;99.90
39849;DHT22;25518;47.878;15.914;2023-03-23T16:55:16;14.80;99.90
39849;DHT22;25518;47.878;15.914;2023-03-23T16:58:06;14.60;99.90
39849;DHT22;25518;47.878;15.914;2023-03-23T17:00:56;14.40;99.90
39849;DHT22;25518;47.878;15.914;2023-03-23T17:03:45;14.30;99.90
39849;DHT22;25518;47.878;15.914;2023-03-23T17:06:35;13.80;99.90
39849;DHT22;25518;47.878;15.914;2023-03-23T17:09:25;13.40;99.90
39849;DHT22;25518;47.878;15.914;2023-03-23T17:12:15;13.30;99.90
39849;DHT22;25518;47.878;15.914;2023-03-23T17:15:06;13.20;99.90
39849;DHT22;25518;47.878;15.914;2023-03-23T17:17:56;13.30;99.90
39849;DHT22;25518;47.878;15.914;2023-03-23T17:20:46;13.30;99.90
39849;DHT22;25518;47.878;15.914;2023-03-23T17:23:35;13.10;99.90
39849;DHT22;25518;47.878;15.914;2023-03-23T17:26:25;12.80;99.90
39849;DHT22;25518;47.878;15.914;2023-03-23T17:29:14;12.80;99.90
39849;DHT22;25518;47.878;15.914;2023-03-23T17:32:05;12.80;99.90
39849;DHT22;25518;47.878;15.914;2023-03-23T22:41:54;9.00;99.90
39849;DHT22;25518;47.878;15.914;2023-03-23T22:44:44;9.20;99.90
39849;DHT22;25518;47.878;15.914;2023-03-23T22:47:34;9.10;99.90
39849;DHT22;25518;47.878;15.914;2023-03-23T22:50:24;9.10;99.90
39849;DHT22;25518;47.878;15.914;2023-03-23T22:53:17;9.10;99.90
39849;DHT22;25518;47.878;15.914;2023-03-23T22:56:08;9.20;99.90
39849;DHT22;25518;47.878;15.914;2023-03-23T22:58:58;9.30;99.90
39849;DHT22;25518;47.878;15.914;2023-03-23T23:01:48;9.30;99.90
39849;DHT22;25518;47.878;15.914;2023-03-23T23:04:38;9.20;99.90
39849;DHT22;25518;47.878;15.914;2023-03-23T23:07:27;9.30;99.90
39849;DHT22;25518;47.878;15.914;2023-03-23T23:10:16;9.30;99.90
39849;DHT22;25518;47.878;15.914;2023-03-23T23:13:08;9.30;99.90
39849;DHT22;25518;47.878;15.914;2023-03-23T23:16:00;9.40;99.90
39849;DHT22;25518;47.878;15.914;2023-03-23T23:18:50;9.30;99.90
39849;DHT22;25518;47.878;15.914;2023-03-23T23:21:40;9.40;99.90
39849;DHT22;25518;47.878;15.914;2023-03-23T23:24:30;9.40;99.90
39849;DHT22;25518;47.878;15.914;2023-03-23T23:27:20;9.40;99.90
39849;DHT22;25518;47.878;15.914;2023-03-23T23:30:11;9.50;99.90
39849;DHT22;25518;47.878;15.914;2023-03-23T23:33:00;9.40;99.90
39849;DHT22;25518;47.878;15.914;2023-03-23T23:35:50;9.40;99.90
39849;DHT22;25518;47.878;15.914;2023-03-23T23:38:40;9.40;99.90
39849;DHT22;25518;47.878;15.914;2023-03-23T23:41:29;9.30;99.90
39849;DHT22;25518;47.878;15.914;2023-03-23T23:44:19;9.20;99.90
39849;DHT22;25518;47.878;15.914;2023-03-23T23:47:10;9.10;99.90
39849;DHT22;25518;47.878;15.914;2023-03-23T23:49:59;9.00;99.90
39849;DHT22;25518;47.878;15.914;2023-03-23T23:52:50;9.00;99.90
39849;DHT22;25518;47.878;15.914;2023-03-23T23:55:40;9.00;99.90
39849;DHT22;25518;47.878;15.914;2023-03-23T23:58:30;8.80;99.90
